createdAt,value
2019-05-03T00:02:21.685Z,77.80
2019-05-03T00:04:52.861Z,78.60
2019-05-03T00:07:25.141Z,78.40
2019-05-03T00:09:54.116Z,80.70
2019-05-03T00:12:24.287Z,83.30
2019-05-03T00:15:07.567Z,82.80
2019-05-03T00:17:38.093Z,84.70
2019-05-03T00:20:09.255Z,86.40
2019-05-03T00:22:38.793Z,81.80
2019-05-03T00:25:08.458Z,79.40
2019-05-03T00:27:37.365Z,79.40
2019-05-03T00:30:07.727Z,77.10
2019-05-03T00:32:36.850Z,77.80
2019-05-03T00:35:12.041Z,76.00
2019-05-03T00:37:42.564Z,76.40
2019-05-03T00:40:29.442Z,79.10
2019-05-03T00:42:59.213Z,78.90
2019-05-03T00:45:28.614Z,80.20
2019-05-03T00:48:01.723Z,77.60
2019-05-03T00:50:32.918Z,78.20
2019-05-03T00:53:03.797Z,79.00
2019-05-03T00:55:32.932Z,78.80
2019-05-03T00:58:02.446Z,76.80
2019-05-03T01:00:32.287Z,76.20
2019-05-03T01:03:02.144Z,76.50
2019-05-03T01:05:32.980Z,75.50
2019-05-03T01:08:02.061Z,75.00
2019-05-03T01:10:34.342Z,73.00
2019-05-03T01:13:04.501Z,73.50
2019-05-03T01:15:37.944Z,76.50
2019-05-03T01:18:08.770Z,78.90
2019-05-03T01:20:39.008Z,78.30
2019-05-03T01:23:09.853Z,78.40
2019-05-03T01:25:39.037Z,76.40
2019-05-03T01:28:09.845Z,78.60
2019-05-03T01:30:39.063Z,77.10
2019-05-03T01:33:12.139Z,76.40
2019-05-03T01:35:40.329Z,80.30
2019-05-03T01:38:15.869Z,81.40
2019-05-03T01:40:49.002Z,82.60
2019-05-03T01:43:18.060Z,80.40
2019-05-03T01:45:51.761Z,78.00
2019-05-03T01:48:28.313Z,77.40
2019-05-03T01:51:02.861Z,75.50
2019-05-03T01:53:34.025Z,75.00
2019-05-03T01:56:03.678Z,75.30
2019-05-03T01:58:32.549Z,74.40
2019-05-03T02:01:12.710Z,73.60
2019-05-03T02:03:43.338Z,73.10
2019-05-03T02:06:15.253Z,77.30
2019-05-03T02:08:44.261Z,78.60
2019-05-03T02:11:13.367Z,76.40
2019-05-03T02:13:42.769Z,76.20
2019-05-03T02:16:12.006Z,74.50
2019-05-03T02:18:42.382Z,73.90
2019-05-03T02:21:12.248Z,74.60
2019-05-03T02:23:42.530Z,75.60
2019-05-03T02:26:12.434Z,75.40
2019-05-03T02:28:42.172Z,75.00
2019-05-03T02:31:13.759Z,74.50
2019-05-03T02:33:46.260Z,76.40
2019-05-03T02:36:15.591Z,72.80
2019-05-03T02:38:44.523Z,72.50
2019-05-03T02:41:19.378Z,73.50
2019-05-03T02:43:49.878Z,72.80
2019-05-03T02:46:29.080Z,73.00
2019-05-03T02:49:15.820Z,73.60
2019-05-03T02:51:46.077Z,75.60
2019-05-03T02:54:15.768Z,75.80
2019-05-03T02:56:47.468Z,75.00
2019-05-03T02:59:17.954Z,74.10
2019-05-03T03:01:47.286Z,76.10
2019-05-03T03:04:16.270Z,74.60
2019-05-03T03:06:47.466Z,74.00
2019-05-03T03:09:19.107Z,74.60
2019-05-03T03:11:50.758Z,74.60
2019-05-03T03:14:22.407Z,74.70
2019-05-03T03:16:56.150Z,73.80
2019-05-03T03:19:27.791Z,74.50
2019-05-03T03:22:01.501Z,75.00
2019-05-03T03:24:36.395Z,75.00
2019-05-03T03:27:07.673Z,75.90
2019-05-03T03:29:38.279Z,76.80
2019-05-03T03:32:18.595Z,75.20
2019-05-03T03:35:06.121Z,75.70
2019-05-03T03:37:35.231Z,74.00
2019-05-03T03:40:06.177Z,76.50
2019-05-03T03:42:36.110Z,75.00
2019-05-03T03:45:06.522Z,74.00
2019-05-03T03:47:38.922Z,82.80
2019-05-03T03:50:10.856Z,83.30
2019-05-03T03:52:45.019Z,78.70
2019-05-03T03:55:16.090Z,75.50
2019-05-03T03:57:46.751Z,76.20
2019-05-03T04:00:19.435Z,76.60
2019-05-03T04:02:48.528Z,76.50
2019-05-03T04:05:17.503Z,75.80
2019-05-03T04:07:46.627Z,77.70
2019-05-03T04:10:15.847Z,79.60
2019-05-03T04:12:47.080Z,79.10
2019-05-03T04:15:26.349Z,76.50
2019-05-03T04:18:09.183Z,76.70
2019-05-03T04:20:46.106Z,75.70
2019-05-03T04:23:16.923Z,75.00
2019-05-03T04:25:48.411Z,75.00
2019-05-03T04:28:18.742Z,80.80
2019-05-03T04:30:48.176Z,81.10
2019-05-03T04:33:18.895Z,83.90
2019-05-03T04:35:47.633Z,84.90
2019-05-03T04:38:16.778Z,81.40
2019-05-03T04:40:45.810Z,79.90
2019-05-03T04:43:20.506Z,80.10
2019-05-03T04:46:11.689Z,80.40
2019-05-03T04:48:40.770Z,77.80
2019-05-03T04:51:09.808Z,77.50
2019-05-03T04:53:40.785Z,80.50
2019-05-03T04:56:19.155Z,83.40
2019-05-03T04:58:45.816Z,84.20
2019-05-03T05:01:15.780Z,81.70
2019-05-03T05:03:46.332Z,80.50
2019-05-03T05:06:16.692Z,77.80
2019-05-03T05:08:47.893Z,75.80
2019-05-03T05:11:17.128Z,79.20
2019-05-03T05:13:46.614Z,77.30
2019-05-03T05:16:16.324Z,79.30
2019-05-03T05:18:48.810Z,83.10
2019-05-03T05:21:19.322Z,81.20
2019-05-03T05:24:06.030Z,77.60
2019-05-03T05:26:44.523Z,77.60
2019-05-03T05:29:15.273Z,80.00
2019-05-03T05:31:44.614Z,80.10
2019-05-03T05:34:15.880Z,81.20
2019-05-03T05:36:45.038Z,78.00
2019-05-03T05:39:18.610Z,79.40
2019-05-03T05:41:46.544Z,77.60
2019-05-03T05:44:15.496Z,78.80
2019-05-03T05:46:54.325Z,78.90
2019-05-03T05:49:44.239Z,79.00
2019-05-03T05:52:15.615Z,80.90
2019-05-03T05:54:45.628Z,80.60
2019-05-03T05:57:26.690Z,77.60
2019-05-03T06:00:15.323Z,78.90
2019-05-03T06:02:47.983Z,77.80
2019-05-03T06:05:17.125Z,75.30
2019-05-03T06:07:56.338Z,75.40
2019-05-03T06:10:49.237Z,76.70
2019-05-03T06:13:22.641Z,76.50
2019-05-03T06:15:56.122Z,78.90
2019-05-03T06:18:45.247Z,79.40
2019-05-03T06:21:32.409Z,78.10
2019-05-03T06:24:06.590Z,78.40
2019-05-03T06:26:54.652Z,77.00
2019-05-03T06:29:37.102Z,77.60
2019-05-03T06:32:27.717Z,77.00
2019-05-03T06:34:58.929Z,76.10
2019-05-03T06:37:38.103Z,77.70
2019-05-03T06:40:16.829Z,78.90
2019-05-03T06:42:54.558Z,77.40
2019-05-03T06:45:25.128Z,76.70
2019-05-03T06:48:05.413Z,76.70
2019-05-03T06:50:36.404Z,75.90
2019-05-03T06:53:12.781Z,81.90
2019-05-03T06:55:48.456Z,81.70
2019-05-03T06:58:30.401Z,80.30
2019-05-03T07:00:58.165Z,85.50
2019-05-03T07:03:29.241Z,87.10
2019-05-03T07:06:15.125Z,86.20
2019-05-03T07:08:48.758Z,83.10
2019-05-03T07:11:17.835Z,80.50
2019-05-03T07:13:48.660Z,83.10
2019-05-03T07:16:19.049Z,83.20
2019-05-03T07:18:49.508Z,80.00
2019-05-03T07:21:18.972Z,78.60
2019-05-03T07:23:52.424Z,78.60
2019-05-03T07:26:21.401Z,75.10
2019-05-03T07:28:54.920Z,76.20
2019-05-03T07:31:30.064Z,74.30
2019-05-03T07:34:05.210Z,75.40
2019-05-03T07:36:35.670Z,74.20
2019-05-03T07:39:07.349Z,74.00
2019-05-03T07:41:36.225Z,72.30
2019-05-03T07:44:09.514Z,76.60
2019-05-03T07:46:45.188Z,76.90
2019-05-03T07:49:16.636Z,78.70
2019-05-03T07:51:47.341Z,77.90
2019-05-03T07:54:19.202Z,77.10
2019-05-03T07:56:54.785Z,78.00
2019-05-03T07:59:25.062Z,77.90
2019-05-03T08:01:56.162Z,75.90
2019-05-03T08:04:27.990Z,76.40
2019-05-03T08:06:58.395Z,77.60
2019-05-03T08:09:31.774Z,80.30
2019-05-03T08:12:00.807Z,77.50
2019-05-03T08:14:30.395Z,74.60
2019-05-03T08:17:01.868Z,73.30
2019-05-03T08:19:35.774Z,72.60
2019-05-03T08:22:05.167Z,74.00
2019-05-03T08:24:36.158Z,67.80
2019-05-03T08:27:17.315Z,68.70
2019-05-03T08:29:46.961Z,68.40
2019-05-03T08:32:28.889Z,66.40
2019-05-03T08:35:17.647Z,64.10
2019-05-03T08:37:51.819Z,63.20
2019-05-03T08:40:28.333Z,59.40
2019-05-03T08:43:01.692Z,61.10
2019-05-03T08:45:38.858Z,60.20
2019-05-03T08:48:11.455Z,60.10
2019-05-03T08:50:42.322Z,59.50
2019-05-03T08:53:28.960Z,58.20
2019-05-03T08:56:06.841Z,60.50
2019-05-03T08:58:38.011Z,58.70
2019-05-03T09:01:07.195Z,59.50
2019-05-03T09:03:40.378Z,58.90
2019-05-03T09:06:16.652Z,58.30
2019-05-03T09:08:46.841Z,58.90
2019-05-03T09:11:30.822Z,58.10
2019-05-03T09:13:51.224Z,59.80
2019-05-03T09:16:25.207Z,60.00
2019-05-03T09:18:54.907Z,59.30
2019-05-03T09:21:25.640Z,59.40
2019-05-03T09:23:55.528Z,61.50
2019-05-03T09:26:31.555Z,59.10
2019-05-03T09:29:05.384Z,59.50
2019-05-03T09:31:39.882Z,59.30
2019-05-03T09:34:21.101Z,59.90
2019-05-03T09:36:51.478Z,60.00
2019-05-03T09:39:24.488Z,60.10
2019-05-03T09:41:59.259Z,59.20
2019-05-03T09:44:37.329Z,59.60
2019-05-03T09:47:14.513Z,59.10
2019-05-03T09:49:56.363Z,58.30
2019-05-03T09:52:35.540Z,58.80
2019-05-03T09:55:14.549Z,58.30
2019-05-03T09:57:47.959Z,58.40
2019-05-03T10:00:21.133Z,58.00
2019-05-03T10:03:05.633Z,56.80
2019-05-03T10:05:31.612Z,56.40
2019-05-03T10:08:01.195Z,56.10
2019-05-03T10:10:36.548Z,56.20
2019-05-03T10:13:14.511Z,55.70
2019-05-03T10:15:44.978Z,54.40
2019-05-03T10:18:16.185Z,53.60
2019-05-03T10:20:48.991Z,53.60
2019-05-03T10:23:25.605Z,54.00
2019-05-03T10:25:57.910Z,53.70
2019-05-03T10:28:31.447Z,54.40
2019-05-03T10:31:08.848Z,54.30
2019-05-03T10:33:39.583Z,52.80
2019-05-03T10:36:12.672Z,51.60
2019-05-03T10:38:45.886Z,51.30
2019-05-03T10:41:20.137Z,53.40
2019-05-03T10:43:51.298Z,56.10
2019-05-03T10:46:30.840Z,58.20
2019-05-03T10:49:05.765Z,56.30
2019-05-03T10:51:37.256Z,56.50
2019-05-03T10:54:08.305Z,56.20
2019-05-03T10:56:47.897Z,56.20
2019-05-03T10:59:21.915Z,56.30
2019-05-03T11:01:58.559Z,58.00
2019-05-03T11:04:29.102Z,57.80
2019-05-03T11:07:05.306Z,58.50
2019-05-03T11:09:47.995Z,58.00
2019-05-03T11:12:05.419Z,57.40
2019-05-03T11:14:36.127Z,56.70
2019-05-03T11:17:05.849Z,55.20
2019-05-03T11:19:38.042Z,55.40
2019-05-03T11:22:08.830Z,54.90
2019-05-03T11:24:37.793Z,54.70
2019-05-03T11:27:12.311Z,54.80
2019-05-03T11:29:49.242Z,54.10
2019-05-03T11:32:22.603Z,54.60
2019-05-03T11:34:55.301Z,55.30
2019-05-03T11:37:45.474Z,54.30
2019-05-03T11:40:18.255Z,54.60
2019-05-03T11:42:51.133Z,54.00
2019-05-03T11:45:21.513Z,53.80
2019-05-03T11:47:58.442Z,52.10
2019-05-03T11:50:34.611Z,51.90
2019-05-03T11:53:05.181Z,53.60
2019-05-03T11:55:35.428Z,53.30
2019-05-03T11:58:20.600Z,51.90
2019-05-03T12:00:51.669Z,53.40
2019-05-03T12:03:24.960Z,53.40
2019-05-03T12:05:55.240Z,53.50
2019-05-03T12:08:25.296Z,52.50
2019-05-03T12:11:01.044Z,52.60
2019-05-03T12:13:35.638Z,51.60
2019-05-03T12:16:17.648Z,52.00
2019-05-03T12:18:50.243Z,52.40
2019-05-03T12:21:18.080Z,54.00
2019-05-03T12:24:06.202Z,54.80
2019-05-03T12:26:43.457Z,54.00
2019-05-03T12:29:09.425Z,53.00
2019-05-03T12:31:42.093Z,53.70
2019-05-03T12:34:15.625Z,53.20
2019-05-03T12:36:45.116Z,53.00
2019-05-03T12:39:24.185Z,52.30
2019-05-03T12:41:48.201Z,53.00
2019-05-03T12:44:24.698Z,53.10
2019-05-03T12:47:02.359Z,53.90
2019-05-03T12:49:31.041Z,52.90
2019-05-03T12:52:05.574Z,53.60
2019-05-03T12:54:45.110Z,53.30
2019-05-03T12:57:17.235Z,52.80
2019-05-03T12:59:52.160Z,51.70
2019-05-03T13:02:24.863Z,51.00
2019-05-03T13:05:02.213Z,50.50
2019-05-03T13:07:48.542Z,50.30
2019-05-03T13:10:22.744Z,50.40
2019-05-03T13:12:53.100Z,51.60
2019-05-03T13:15:24.503Z,49.80
2019-05-03T13:17:55.399Z,50.00
2019-05-03T13:20:25.315Z,49.40
2019-05-03T13:23:08.263Z,48.20
2019-05-03T13:25:37.445Z,49.60
2019-05-03T13:28:11.289Z,47.50
2019-05-03T13:30:45.305Z,47.90
2019-05-03T13:33:15.121Z,47.10
2019-05-03T13:35:45.729Z,47.10
2019-05-03T13:38:22.063Z,47.80
2019-05-03T13:40:54.263Z,48.20
2019-05-03T13:43:25.863Z,50.00
2019-05-03T13:46:05.133Z,49.30
2019-05-03T13:48:45.296Z,47.70
2019-05-03T13:51:07.925Z,47.10
2019-05-03T13:53:40.755Z,46.40
2019-05-03T13:56:12.709Z,45.10
2019-05-03T13:58:46.439Z,45.60
2019-05-03T14:01:22.455Z,45.90
2019-05-03T14:04:05.276Z,45.70
2019-05-03T14:06:38.369Z,47.40
2019-05-03T14:09:13.607Z,47.80
2019-05-03T14:11:59.119Z,48.40
2019-05-03T14:14:25.862Z,47.60
2019-05-03T14:16:55.828Z,48.20
2019-05-03T14:19:29.618Z,48.10
2019-05-03T14:22:05.302Z,49.10
2019-05-03T14:24:36.216Z,48.50
2019-05-03T14:27:11.755Z,46.40
2019-05-03T14:29:45.431Z,47.30
2019-05-03T14:32:25.819Z,47.50
2019-05-03T14:34:52.046Z,48.20
2019-05-03T14:37:25.350Z,47.80
2019-05-03T14:40:01.925Z,49.20
2019-05-03T14:42:34.285Z,49.40
2019-05-03T14:45:04.556Z,48.70
2019-05-03T14:47:34.880Z,47.80
2019-05-03T14:50:15.039Z,48.60
2019-05-03T14:52:45.601Z,48.70
2019-05-03T14:55:18.179Z,48.20
2019-05-03T14:58:04.376Z,48.00
2019-05-03T15:00:41.575Z,48.40
2019-05-03T15:03:15.139Z,48.40
2019-05-03T15:05:55.045Z,48.20
2019-05-03T15:08:26.438Z,48.00
2019-05-03T15:10:59.912Z,48.60
2019-05-03T15:13:35.487Z,48.80
2019-05-03T15:16:08.032Z,48.00
2019-05-03T15:18:40.421Z,48.50
2019-05-03T15:21:09.834Z,49.40
2019-05-03T15:23:45.215Z,50.40
2019-05-03T15:26:16.274Z,51.30
2019-05-03T15:28:45.757Z,50.90
2019-05-03T15:31:16.961Z,51.60
2019-05-03T15:33:46.445Z,51.90
2019-05-03T15:36:34.829Z,52.30
2019-05-03T15:39:08.452Z,52.60
2019-05-03T15:41:40.232Z,52.10
2019-05-03T15:44:17.427Z,52.70
2019-05-03T15:46:50.754Z,53.30
2019-05-03T15:49:28.370Z,53.40
2019-05-03T15:51:58.370Z,54.10
2019-05-03T15:54:27.705Z,53.20
2019-05-03T15:57:07.529Z,52.70
2019-05-03T15:59:40.155Z,52.20
2019-05-03T16:02:10.601Z,53.40
2019-05-03T16:04:39.482Z,53.10
2019-05-03T16:07:14.365Z,53.00
2019-05-03T16:09:55.327Z,53.30
2019-05-03T16:12:26.732Z,52.80
2019-05-03T16:15:00.680Z,52.10
2019-05-03T16:17:30.866Z,52.60
2019-05-03T16:20:01.815Z,53.40
2019-05-03T16:22:33.603Z,54.70
2019-05-03T16:25:14.253Z,55.50
2019-05-03T16:27:55.201Z,56.40
2019-05-03T16:33:27.786Z,59.20
2019-05-03T16:35:57.653Z,57.70
2019-05-03T16:38:30.838Z,59.20
2019-05-03T16:41:09.255Z,60.30
2019-05-03T16:43:41.920Z,63.20
2019-05-03T16:46:16.834Z,62.00
2019-05-03T16:48:48.508Z,62.30
2019-05-03T16:51:20.300Z,61.90
2019-05-03T16:53:50.271Z,61.00
2019-05-03T16:56:24.637Z,60.60
2019-05-03T16:58:59.307Z,62.00
2019-05-03T17:01:40.211Z,61.50
2019-05-03T17:04:28.849Z,62.40
2019-05-03T17:07:08.846Z,62.30
2019-05-03T17:09:41.985Z,64.30
2019-05-03T17:12:17.595Z,63.20
2019-05-03T17:14:57.130Z,61.70
2019-05-03T17:17:25.236Z,60.70
2019-05-03T17:20:01.211Z,62.70
2019-05-03T17:22:34.512Z,63.40
2019-05-03T17:25:11.668Z,62.60
2019-05-03T17:27:44.920Z,61.90
2019-05-03T17:30:16.634Z,61.60
2019-05-03T17:32:48.850Z,60.30
2019-05-03T17:35:25.152Z,60.00
2019-05-03T17:37:58.861Z,60.60
2019-05-03T17:40:49.546Z,60.00
2019-05-03T17:43:39.361Z,61.40
2019-05-03T17:46:14.891Z,59.20
2019-05-03T17:48:48.816Z,59.40
2019-05-03T17:51:40.199Z,60.00
2019-05-03T17:54:11.202Z,60.00
2019-05-03T17:57:04.814Z,58.90
2019-05-03T17:59:40.169Z,59.70
2019-05-03T18:05:35.185Z,61.50
2019-05-03T18:08:37.690Z,58.80
2019-05-03T18:11:19.188Z,59.50
2019-05-03T18:13:48.531Z,59.30
2019-05-03T18:16:24.476Z,59.30
2019-05-03T18:18:55.312Z,61.00
2019-05-03T18:21:26.537Z,60.60
2019-05-03T18:24:12.133Z,60.50
2019-05-03T18:26:46.016Z,59.70
2019-05-03T18:29:19.903Z,58.50
2019-05-03T18:31:55.733Z,59.10
2019-05-03T18:34:27.778Z,58.00
2019-05-03T18:37:04.796Z,59.00
2019-05-03T18:39:46.594Z,58.70
2019-05-03T18:42:30.529Z,58.40
2019-05-03T18:44:59.702Z,58.30
2019-05-03T18:47:54.470Z,60.40
2019-05-03T18:50:22.559Z,59.80
2019-05-03T18:55:49.848Z,59.60
2019-05-03T18:58:25.134Z,59.60
2019-05-03T19:01:16.382Z,59.90
2019-05-03T19:03:51.795Z,59.90
2019-05-03T19:06:30.127Z,59.50
2019-05-03T19:09:17.225Z,59.20
2019-05-03T19:12:04.697Z,59.50
2019-05-03T19:14:39.507Z,59.70
2019-05-03T19:17:15.467Z,59.90
2019-05-03T19:19:50.727Z,59.80
2019-05-03T19:22:28.870Z,59.20
2019-05-03T19:25:02.184Z,58.90
2019-05-03T19:27:34.646Z,58.60
2019-05-03T19:30:14.862Z,58.40
2019-05-03T19:32:51.811Z,58.30
2019-05-03T19:35:28.651Z,58.20
2019-05-03T19:37:58.911Z,58.20
2019-05-03T19:40:41.321Z,58.20
2019-05-03T19:43:20.809Z,58.30
2019-05-03T19:45:53.996Z,58.60
2019-05-03T19:48:25.588Z,58.60
2019-05-03T19:50:58.561Z,58.50
2019-05-03T19:53:55.735Z,58.60
2019-05-03T19:56:25.752Z,58.70
2019-05-03T19:59:04.668Z,58.20
2019-05-03T20:01:43.677Z,58.00
2019-05-03T20:07:36.307Z,57.40
2019-05-03T20:10:20.181Z,57.80
2019-05-03T20:12:52.137Z,58.10
2019-05-03T20:15:26.837Z,58.70
2019-05-03T20:18:11.232Z,58.10
2019-05-03T20:20:41.425Z,58.60
2019-05-03T20:23:17.738Z,58.60
2019-05-03T20:25:47.166Z,58.90
2019-05-03T20:28:22.453Z,58.90
2019-05-03T20:31:00.832Z,58.90
2019-05-03T20:33:39.037Z,58.90
2019-05-03T20:36:15.028Z,58.70
2019-05-03T20:41:35.953Z,59.00
2019-05-03T20:44:07.879Z,59.80
2019-05-03T20:47:34.832Z,60.50
2019-05-03T20:50:24.767Z,60.30
2019-05-03T20:53:01.323Z,60.00
2019-05-03T20:55:34.747Z,59.70
2019-05-03T20:58:08.687Z,59.30
2019-05-03T21:01:07.152Z,59.30
2019-05-03T21:03:38.549Z,59.10
2019-05-03T21:06:15.730Z,59.50
2019-05-03T21:08:53.557Z,59.10
2019-05-03T21:11:29.546Z,59.50
2019-05-03T21:14:00.009Z,59.30
2019-05-03T21:16:34.191Z,58.80
2019-05-03T21:19:17.621Z,58.80
2019-05-03T21:21:51.458Z,59.00
2019-05-03T21:24:29.120Z,57.60
2019-05-03T21:27:05.046Z,59.20
2019-05-03T21:29:38.644Z,59.20
2019-05-03T21:32:18.642Z,59.30
2019-05-03T21:34:49.285Z,59.80
2019-05-03T21:37:54.396Z,59.70
2019-05-03T21:40:24.640Z,59.40
2019-05-03T21:42:58.418Z,59.30
2019-05-03T21:45:32.574Z,59.30
2019-05-03T21:48:14.631Z,59.30
2019-05-03T21:50:49.336Z,59.60
2019-05-03T21:53:19.290Z,59.60
2019-05-03T21:56:38.958Z,59.80
2019-05-03T21:59:09.806Z,59.80
2019-05-03T22:01:42.304Z,59.80
2019-05-03T22:04:12.720Z,59.70
2019-05-03T22:06:54.900Z,60.10
2019-05-03T22:09:23.267Z,60.30
2019-05-03T22:11:55.764Z,59.10
2019-05-03T22:14:32.733Z,59.80
2019-05-03T22:20:04.829Z,60.00
2019-05-03T22:25:41.307Z,59.80
2019-05-03T22:28:19.539Z,61.70
2019-05-03T22:30:54.541Z,59.80
2019-05-03T22:33:26.855Z,59.70
2019-05-03T22:36:08.241Z,59.70
2019-05-03T22:38:36.268Z,60.00
2019-05-03T22:41:05.836Z,60.00
2019-05-03T22:43:45.537Z,60.30
2019-05-03T22:46:15.617Z,60.10
2019-05-03T22:48:50.643Z,60.30
2019-05-03T22:51:24.446Z,59.90
2019-05-03T22:53:57.145Z,59.60
2019-05-03T22:56:28.748Z,59.40
2019-05-03T22:59:02.792Z,59.30
2019-05-03T23:01:32.233Z,58.60
2019-05-03T23:04:01.569Z,59.20
2019-05-03T23:06:46.647Z,59.60
2019-05-03T23:09:20.971Z,59.60
2019-05-03T23:11:52.073Z,59.90
2019-05-03T23:14:25.556Z,59.60
2019-05-03T23:17:06.473Z,59.60
2019-05-03T23:19:35.198Z,61.80
2019-05-03T23:22:16.910Z,59.50
2019-05-03T23:24:50.084Z,59.60
2019-05-03T23:27:57.902Z,59.90
2019-05-03T23:30:34.059Z,59.60
2019-05-03T23:33:06.277Z,60.60
2019-05-03T23:35:44.417Z,61.40
2019-05-03T23:38:17.106Z,61.90
2019-05-03T23:40:49.658Z,61.80
2019-05-03T23:43:25.026Z,61.20
2019-05-03T23:45:55.159Z,60.90
2019-05-03T23:48:29.051Z,60.10
2019-05-03T23:50:59.872Z,63.00
